createdAt,value
2016-11-10T00:00:11.179Z,71.72
2016-11-10T00:01:11.139Z,71.34
2016-11-10T00:02:11.191Z,71.25
2016-11-10T00:03:11.550Z,71.15
2016-11-10T00:04:11.201Z,71.15
2016-11-10T00:05:11.126Z,71.44
2016-11-10T00:06:11.205Z,71.15
2016-11-10T00:07:11.209Z,71.06
2016-11-10T00:08:11.229Z,71.34
2016-11-10T00:09:11.136Z,71.34
2016-11-10T00:10:11.140Z,71.06
2016-11-10T00:11:11.218Z,71.06
2016-11-10T00:12:11.206Z,71.06
2016-11-10T00:13:11.134Z,70.97
2016-11-10T00:14:11.213Z,71.06
2016-11-10T00:15:11.233Z,71.06
2016-11-10T00:16:11.231Z,71.25
2016-11-10T00:17:11.232Z,71.06
2016-11-10T00:18:11.169Z,71.25
2016-11-10T00:19:11.154Z,71.34
2016-11-10T00:20:11.160Z,71.25
2016-11-10T00:21:11.169Z,71.15
2016-11-10T00:22:11.261Z,71.25
2016-11-10T00:23:11.201Z,71.25
2016-11-10T00:24:11.185Z,71.44
2016-11-10T00:25:11.181Z,71.34
2016-11-10T00:26:11.252Z,71.06
2016-11-10T00:27:11.196Z,71.06
2016-11-10T00:28:11.185Z,71.15
2016-11-10T00:29:11.300Z,70.97
2016-11-10T00:30:11.272Z,71.15
2016-11-10T00:31:11.262Z,71.25
2016-11-10T00:32:11.286Z,71.15
2016-11-10T00:33:11.200Z,70.97
2016-11-10T00:34:11.274Z,70.97
2016-11-10T00:35:11.199Z,71.06
2016-11-10T00:36:11.208Z,71.06
2016-11-10T00:37:11.293Z,70.97
2016-11-10T00:38:11.291Z,70.97
2016-11-10T00:39:11.294Z,70.97
2016-11-10T00:40:11.229Z,70.97
2016-11-10T00:41:11.295Z,71.06
2016-11-10T00:42:11.304Z,71.15
2016-11-10T00:43:11.225Z,70.97
2016-11-10T00:44:11.325Z,70.68
2016-11-10T00:45:11.222Z,70.68
2016-11-10T00:46:11.231Z,70.97
2016-11-10T00:47:11.234Z,71.15
2016-11-10T00:48:11.315Z,70.78
2016-11-10T00:49:11.253Z,70.78
2016-11-10T00:50:11.236Z,70.78
2016-11-10T00:51:11.307Z,70.78
2016-11-10T00:52:11.310Z,70.68
2016-11-10T00:53:11.329Z,70.87
2016-11-10T00:54:11.259Z,70.68
2016-11-10T00:55:11.334Z,70.58
2016-11-10T00:56:11.269Z,70.49
2016-11-10T00:57:11.267Z,70.39
2016-11-10T00:58:11.350Z,70.58
2016-11-10T00:59:11.873Z,70.49
2016-11-10T01:00:11.388Z,70.39
2016-11-10T01:01:11.337Z,70.58
2016-11-10T01:02:11.275Z,70.58
2016-11-10T01:03:11.288Z,70.68
2016-11-10T01:04:11.361Z,70.49
2016-11-10T01:05:11.279Z,70.68
2016-11-10T01:06:11.359Z,71.06
2016-11-10T01:07:11.361Z,70.39
2016-11-10T01:08:11.301Z,70.49
2016-11-10T01:09:11.288Z,70.49
2016-11-10T01:10:11.365Z,70.49
2016-11-10T01:11:11.376Z,70.3
2016-11-10T01:12:11.321Z,70.68
2016-11-10T01:13:11.315Z,70.97
2016-11-10T01:14:11.312Z,70.87
2016-11-10T01:15:11.303Z,70.68
2016-11-10T01:16:11.317Z,70.78
2016-11-10T01:17:11.324Z,70.78
2016-11-10T01:18:11.319Z,70.78
2016-11-10T01:19:11.342Z,70.78
2016-11-10T01:20:11.419Z,70.78
2016-11-10T01:21:11.405Z,70.78
2016-11-10T01:22:11.324Z,70.49
2016-11-10T01:23:11.426Z,70.68
2016-11-10T01:24:11.351Z,70.49
2016-11-10T01:25:11.361Z,70.49
2016-11-10T01:26:11.429Z,70.68
2016-11-10T01:27:11.342Z,70.78
2016-11-10T01:28:11.449Z,70.68
2016-11-10T01:29:11.441Z,70.78
2016-11-10T01:30:11.353Z,70.68
2016-11-10T01:31:11.419Z,70.68
2016-11-10T01:32:11.356Z,70.49
2016-11-10T01:33:11.353Z,70.49
2016-11-10T01:34:11.437Z,70.58
2016-11-10T01:35:11.381Z,70.58
2016-11-10T01:36:11.438Z,70.58
2016-11-10T01:37:11.375Z,70.58
2016-11-10T01:38:11.380Z,70.68
2016-11-10T01:39:11.455Z,70.58
2016-11-10T01:40:11.455Z,70.49
2016-11-10T01:41:11.397Z,70.58
2016-11-10T01:42:11.390Z,70.3
2016-11-10T01:43:11.453Z,70.39
2016-11-10T01:44:11.408Z,70.3
2016-11-10T01:45:11.386Z,70.39
2016-11-10T01:46:11.475Z,70.39
2016-11-10T01:47:11.473Z,70.49
2016-11-10T01:48:11.399Z,69.92
2016-11-10T01:49:11.402Z,70.11
2016-11-10T01:50:11.403Z,70.3
2016-11-10T01:51:11.422Z,70.3
2016-11-10T01:52:11.412Z,70.49
2016-11-10T01:53:11.492Z,70.3
2016-11-10T01:54:11.409Z,69.92
2016-11-10T01:55:11.481Z,70.11
2016-11-10T01:56:11.425Z,70.11
2016-11-10T01:57:11.414Z,70.01
2016-11-10T01:58:11.421Z,70.01
2016-11-10T01:59:11.422Z,70.39
2016-11-10T02:00:11.516Z,70.3
2016-11-10T02:01:11.435Z,70.11
2016-11-10T02:02:11.452Z,70.2
2016-11-10T02:03:11.518Z,70.2
2016-11-10T02:04:11.520Z,70.01
2016-11-10T02:05:11.446Z,70.49
2016-11-10T02:06:11.455Z,70.39
2016-11-10T02:07:11.461Z,70.58
2016-11-10T02:08:11.532Z,70.39
2016-11-10T02:09:11.527Z,70.39
2016-11-10T02:10:11.545Z,70.49
2016-11-10T02:11:11.484Z,70.01
2016-11-10T02:12:11.479Z,69.92
2016-11-10T02:13:11.545Z,69.54
2016-11-10T02:14:11.480Z,69.64
2016-11-10T02:15:11.466Z,69.64
2016-11-10T02:16:11.498Z,69.92
2016-11-10T02:17:11.488Z,69.64
2016-11-10T02:18:11.487Z,69.54
2016-11-10T02:19:11.493Z,69.54
2016-11-10T02:20:11.567Z,69.64
2016-11-10T02:21:11.562Z,69.64
2016-11-10T02:22:11.583Z,69.64
2016-11-10T02:23:11.581Z,69.54
2016-11-10T02:24:11.501Z,69.64
2016-11-10T02:25:11.508Z,69.54
2016-11-10T02:26:11.510Z,69.64
2016-11-10T02:27:11.592Z,69.73
2016-11-10T02:28:11.585Z,69.64
2016-11-10T02:29:11.510Z,69.54
2016-11-10T02:30:11.514Z,69.73
2016-11-10T02:31:11.591Z,69.45
2016-11-10T02:32:11.640Z,69.54
2016-11-10T02:33:11.661Z,69.64
2016-11-10T02:34:11.527Z,69.73
2016-11-10T02:35:11.522Z,69.73
2016-11-10T02:36:11.528Z,69.73
2016-11-10T02:37:11.542Z,69.82
2016-11-10T02:38:11.616Z,69.73
2016-11-10T02:39:11.624Z,69.64
2016-11-10T02:40:11.620Z,69.54
2016-11-10T02:41:11.548Z,69.73
2016-11-10T02:42:11.556Z,69.64
2016-11-10T02:43:11.552Z,69.64
2016-11-10T02:44:11.650Z,69.64
2016-11-10T02:45:11.626Z,69.64
2016-11-10T02:46:11.566Z,69.73
2016-11-10T02:47:11.583Z,69.54
2016-11-10T02:48:11.568Z,69.35
2016-11-10T02:49:11.648Z,69.54
2016-11-10T02:50:11.648Z,69.64
2016-11-10T02:51:11.571Z,69.35
2016-11-10T02:52:11.662Z,69.45
2016-11-10T02:53:11.661Z,69.64
2016-11-10T02:54:11.659Z,69.35
2016-11-10T02:55:11.653Z,69.45
2016-11-10T02:56:11.654Z,69.26
2016-11-10T02:57:11.583Z,69.54
2016-11-10T02:58:11.591Z,69.54
2016-11-10T02:59:11.671Z,69.45
2016-11-10T03:00:11.675Z,69.17
2016-11-10T03:01:11.683Z,69.26
2016-11-10T03:02:11.682Z,69.07
2016-11-10T03:03:11.613Z,69.26
2016-11-10T03:04:11.705Z,68.98
2016-11-10T03:05:11.691Z,68.98
2016-11-10T03:06:11.699Z,68.98
2016-11-10T03:07:11.697Z,69.07
2016-11-10T03:08:11.687Z,68.88
2016-11-10T03:09:11.688Z,69.17
2016-11-10T03:10:11.625Z,68.98
2016-11-10T03:11:11.618Z,69.17
2016-11-10T03:12:11.701Z,69.07
2016-11-10T03:13:11.629Z,69.45
2016-11-10T03:14:11.747Z,69.26
2016-11-10T03:15:11.716Z,69.26
2016-11-10T03:16:11.716Z,69.26
2016-11-10T03:17:11.719Z,69.26
2016-11-10T03:18:11.731Z,69.17
2016-11-10T03:19:11.723Z,69.26
2016-11-10T03:20:11.675Z,69.07
2016-11-10T03:21:11.646Z,68.88
2016-11-10T03:22:11.662Z,68.98
2016-11-10T03:23:11.653Z,68.98
2016-11-10T03:24:11.667Z,68.98
2016-11-10T03:25:11.744Z,68.88
2016-11-10T03:26:11.657Z,68.98
2016-11-10T03:27:11.668Z,68.98
2016-11-10T03:28:11.754Z,68.88
2016-11-10T03:29:11.675Z,68.98
2016-11-10T03:30:11.697Z,68.88
2016-11-10T03:31:11.679Z,69.07
2016-11-10T03:32:11.768Z,68.5
2016-11-10T03:33:11.686Z,68.79
2016-11-10T03:34:11.770Z,68.5
2016-11-10T03:35:11.783Z,68.5
2016-11-10T03:36:11.715Z,68.79
2016-11-10T03:37:11.686Z,68.59
2016-11-10T03:38:11.702Z,68.69
2016-11-10T03:39:11.703Z,68.69
2016-11-10T03:40:11.786Z,68.59
2016-11-10T03:41:11.795Z,68.59
2016-11-10T03:42:11.708Z,68.88
2016-11-10T03:43:11.717Z,68.4
2016-11-10T03:44:11.790Z,68.59
2016-11-10T03:45:11.800Z,68.79
2016-11-10T03:46:11.725Z,68.4
2016-11-10T03:47:11.730Z,68.59
2016-11-10T03:48:11.753Z,68.4
2016-11-10T03:49:11.727Z,68.31
2016-11-10T03:50:11.729Z,68.31
2016-11-10T03:51:11.802Z,68.4
2016-11-10T03:52:11.838Z,68.21
2016-11-10T03:53:11.826Z,68.31
2016-11-10T03:54:11.822Z,68.21
2016-11-10T03:55:11.749Z,68.12
2016-11-10T03:56:11.829Z,68.21
2016-11-10T03:57:11.836Z,68.12
2016-11-10T03:58:11.837Z,68.4
2016-11-10T03:59:11.852Z,68.21
2016-11-10T04:00:11.848Z,68.21
2016-11-10T04:01:11.759Z,68.21
2016-11-10T04:02:11.768Z,68.02
2016-11-10T04:03:11.853Z,68.4
2016-11-10T04:04:11.777Z,68.12
2016-11-10T04:05:11.764Z,68.69
2016-11-10T04:06:11.771Z,68.4
2016-11-10T04:07:11.795Z,68.12
2016-11-10T04:08:11.881Z,68.31
2016-11-10T04:09:11.810Z,68.21
2016-11-10T04:10:11.804Z,68.21
2016-11-10T04:11:11.810Z,68.4
2016-11-10T04:12:11.870Z,68.31
2016-11-10T04:13:11.874Z,68.4
2016-11-10T04:14:11.808Z,67.83
2016-11-10T04:15:11.879Z,67.93
2016-11-10T04:16:11.897Z,67.83
2016-11-10T04:17:11.889Z,67.93
2016-11-10T04:18:11.815Z,68.12
2016-11-10T04:19:11.895Z,68.12
2016-11-10T04:20:11.892Z,68.12
2016-11-10T04:21:11.814Z,68.12
2016-11-10T04:22:11.847Z,68.4
2016-11-10T04:23:11.901Z,67.93
2016-11-10T04:24:11.867Z,68.12
2016-11-10T04:25:11.854Z,67.83
2016-11-10T04:26:11.902Z,67.65
2016-11-10T04:27:12.537Z,67.83
2016-11-10T04:28:11.916Z,67.83
2016-11-10T04:29:11.914Z,67.74
2016-11-10T04:30:11.915Z,68.12
2016-11-10T04:31:11.929Z,68.02
2016-11-10T04:32:11.852Z,67.74
2016-11-10T04:33:11.938Z,68.12
2016-11-10T04:34:11.929Z,68.31
2016-11-10T04:35:11.940Z,68.02
2016-11-10T04:36:11.857Z,67.93
2016-11-10T04:37:11.863Z,68.02
2016-11-10T04:38:11.941Z,67.93
2016-11-10T04:39:11.957Z,67.93
2016-11-10T04:40:11.973Z,67.65
2016-11-10T04:41:11.955Z,67.08
2016-11-10T04:42:11.884Z,67.36
2016-11-10T04:43:11.967Z,67.27
2016-11-10T04:44:11.878Z,67.36
2016-11-10T04:45:11.879Z,67.27
2016-11-10T04:46:11.986Z,67.46
2016-11-10T04:47:11.961Z,67.36
2016-11-10T04:48:11.964Z,67.36
2016-11-10T04:49:11.908Z,67.18
2016-11-10T04:50:11.902Z,66.7
2016-11-10T04:51:11.900Z,67.08
2016-11-10T04:52:11.906Z,66.8
2016-11-10T04:53:11.909Z,66.89
2016-11-10T04:54:11.980Z,66.89
2016-11-10T04:55:11.995Z,66.89
2016-11-10T04:56:12.014Z,66.89
2016-11-10T04:57:11.915Z,66.8
2016-11-10T04:58:12.003Z,66.6
2016-11-10T04:59:11.914Z,66.8
2016-11-10T05:00:11.921Z,66.41
2016-11-10T05:01:12.006Z,66.7
2016-11-10T05:02:11.944Z,66.8
2016-11-10T05:03:11.946Z,66.89
2016-11-10T05:04:11.946Z,66.8
2016-11-10T05:05:12.010Z,66.6
2016-11-10T05:06:12.028Z,66.7
2016-11-10T05:07:12.017Z,66.51
2016-11-10T05:08:12.027Z,66.7
2016-11-10T05:09:11.944Z,66.8
2016-11-10T05:10:12.035Z,66.22
2016-11-10T05:11:11.959Z,66.41
2016-11-10T05:12:11.978Z,66.41
2016-11-10T05:13:11.960Z,66.6
2016-11-10T05:14:12.046Z,66.41
2016-11-10T05:15:12.050Z,66.32
2016-11-10T05:16:12.048Z,66.32
2016-11-10T05:17:11.969Z,66.32
2016-11-10T05:18:11.973Z,66.41
2016-11-10T05:19:11.979Z,66.41
2016-11-10T05:20:11.982Z,66.7
2016-11-10T05:21:11.985Z,65.84
2016-11-10T05:22:12.077Z,66.03
2016-11-10T05:23:11.988Z,66.13
2016-11-10T05:24:12.083Z,65.94
2016-11-10T05:25:11.997Z,66.03
2016-11-10T05:26:12.016Z,66.03
2016-11-10T05:27:12.000Z,65.75
2016-11-10T05:28:12.027Z,66.03
2016-11-10T05:29:12.004Z,66.22
2016-11-10T05:30:12.004Z,66.03
2016-11-10T05:31:12.089Z,66.03
2016-11-10T05:32:12.086Z,66.32
2016-11-10T05:33:12.021Z,66.03
2016-11-10T05:34:12.012Z,66.13
2016-11-10T05:35:12.025Z,65.94
2016-11-10T05:36:12.077Z,66.13
2016-11-10T05:37:12.030Z,66.13
2016-11-10T05:38:12.127Z,66.03
2016-11-10T05:39:12.029Z,65.94
2016-11-10T05:40:12.120Z,66.03
2016-11-10T05:41:12.042Z,65.66
2016-11-10T05:42:12.035Z,65.56
2016-11-10T05:43:12.062Z,65.66
2016-11-10T05:44:12.072Z,65.66
2016-11-10T05:45:12.132Z,65.47
2016-11-10T05:46:12.053Z,65.56
2016-11-10T05:47:12.050Z,65.37
2016-11-10T05:48:12.057Z,65.47
2016-11-10T05:49:12.063Z,65.09
2016-11-10T05:50:12.066Z,65.19
2016-11-10T05:51:12.074Z,65.47
2016-11-10T05:52:12.075Z,65.37
2016-11-10T05:53:12.071Z,65.28
2016-11-10T05:54:12.083Z,65.47
2016-11-10T05:55:12.179Z,65.47
2016-11-10T05:56:12.161Z,65.47
2016-11-10T05:57:12.086Z,65.56
2016-11-10T05:58:12.085Z,65.28
2016-11-10T05:59:12.093Z,64.9
2016-11-10T06:00:12.114Z,64.81
2016-11-10T06:01:12.109Z,64.9
2016-11-10T06:02:12.174Z,65.19
2016-11-10T06:03:12.173Z,64.81
2016-11-10T06:04:12.180Z,64.9
2016-11-10T06:05:12.107Z,64.71
2016-11-10T06:06:12.103Z,64.71
2016-11-10T06:07:12.113Z,64.9
2016-11-10T06:08:12.106Z,64.9
2016-11-10T06:09:12.191Z,65.28
2016-11-10T06:10:12.196Z,65.47
2016-11-10T06:11:12.198Z,65.19
2016-11-10T06:12:12.129Z,65.28
2016-11-10T06:13:12.200Z,65.47
2016-11-10T06:14:12.230Z,65.09
2016-11-10T06:15:12.136Z,65
2016-11-10T06:16:12.163Z,64.71
2016-11-10T06:17:12.221Z,65
2016-11-10T06:18:12.242Z,64.71
2016-11-10T06:19:12.150Z,64.81
2016-11-10T06:20:12.223Z,64.61
2016-11-10T06:21:12.145Z,64.71
2016-11-10T06:22:12.154Z,64.81
2016-11-10T06:23:12.158Z,64.81
2016-11-10T06:24:12.159Z,64.81
2016-11-10T06:25:12.231Z,64.9
2016-11-10T06:26:12.160Z,65
2016-11-10T06:27:12.181Z,64.9
2016-11-10T06:28:12.247Z,64.81
2016-11-10T06:29:12.254Z,64.81
2016-11-10T06:30:12.248Z,65
2016-11-10T06:31:12.255Z,64.81
2016-11-10T06:32:12.277Z,64.71
2016-11-10T06:33:12.260Z,65.09
2016-11-10T06:34:12.187Z,64.9
2016-11-10T06:35:12.255Z,65
2016-11-10T06:36:12.270Z,64.71
2016-11-10T06:37:12.276Z,64.14
2016-11-10T06:38:12.194Z,63.95
2016-11-10T06:39:12.206Z,64.81
2016-11-10T06:40:12.273Z,64.9
2016-11-10T06:41:12.206Z,64.61
2016-11-10T06:42:12.213Z,64.52
2016-11-10T06:43:12.208Z,64.81
2016-11-10T06:44:12.225Z,64.71
2016-11-10T06:45:12.210Z,64.71
2016-11-10T06:46:12.237Z,64.9
2016-11-10T06:47:12.213Z,65
2016-11-10T06:48:12.327Z,64.9
2016-11-10T06:49:12.305Z,65
2016-11-10T06:50:12.299Z,65
2016-11-10T06:51:12.233Z,64.9
2016-11-10T06:52:12.235Z,65
2016-11-10T06:53:12.247Z,64.71
2016-11-10T06:54:12.316Z,64.42
2016-11-10T06:55:12.244Z,64.9
2016-11-10T06:56:12.292Z,64.9
2016-11-10T06:57:12.326Z,64.81
2016-11-10T06:58:12.251Z,64.42
2016-11-10T06:59:12.291Z,64.52
2016-11-10T07:00:12.371Z,65
2016-11-10T07:01:12.263Z,64.71
2016-11-10T07:02:12.342Z,65
2016-11-10T07:03:12.346Z,65.66
2016-11-10T07:04:12.287Z,65.66
2016-11-10T07:05:12.381Z,65.37
2016-11-10T07:06:12.281Z,65
2016-11-10T07:07:12.352Z,65
2016-11-10T07:08:12.275Z,64.71
2016-11-10T07:09:12.368Z,64.52
2016-11-10T07:10:12.280Z,64.52
2016-11-10T07:11:12.280Z,64.14
2016-11-10T07:12:12.281Z,64.33
2016-11-10T07:13:12.396Z,63.67
2016-11-10T07:14:12.357Z,62.62
2016-11-10T07:15:12.384Z,62.91
2016-11-10T07:16:12.379Z,62.91
2016-11-10T07:17:12.373Z,62.91
2016-11-10T07:18:12.387Z,63.1
2016-11-10T07:19:12.385Z,63.01
2016-11-10T07:20:12.415Z,63.01
2016-11-10T07:21:12.419Z,63.76
2016-11-10T07:22:12.404Z,63.48
2016-11-10T07:23:12.322Z,63.57
2016-11-10T07:24:12.312Z,63.67
2016-11-10T07:25:12.436Z,64.23
2016-11-10T07:26:12.408Z,64.23
2016-11-10T07:27:12.345Z,63.85
2016-11-10T07:28:12.364Z,63.67
2016-11-10T07:29:12.422Z,63.29
2016-11-10T07:30:12.410Z,62.91
2016-11-10T07:31:12.416Z,62.91
2016-11-10T07:32:12.342Z,63.29
2016-11-10T07:33:12.428Z,62.43
2016-11-10T07:34:12.467Z,62.15
2016-11-10T07:35:12.354Z,62.24
2016-11-10T07:36:12.478Z,62.37
2016-11-10T07:37:12.436Z,63.04
2016-11-10T07:38:12.426Z,62.62
2016-11-10T07:39:12.383Z,62.66
2016-11-10T07:40:12.358Z,62.62
2016-11-10T07:41:12.446Z,63.13
2016-11-10T07:42:12.474Z,63.42
2016-11-10T07:43:12.451Z,63.57
2016-11-10T07:44:12.459Z,62.94
2016-11-10T07:45:12.395Z,63.67
2016-11-10T07:46:12.392Z,63.67
2016-11-10T07:47:12.517Z,63.76
2016-11-10T07:48:12.396Z,63.67
2016-11-10T07:49:12.493Z,63.67
2016-11-10T07:50:12.408Z,63.1
2016-11-10T07:51:12.462Z,63.1
2016-11-10T07:52:12.438Z,63.01
2016-11-10T07:53:12.412Z,63.29
2016-11-10T07:54:12.486Z,63.04
2016-11-10T07:55:12.491Z,62.94
2016-11-10T07:56:12.419Z,63.57
2016-11-10T07:57:12.491Z,63.48
2016-11-10T07:58:12.510Z,63.57
2016-11-10T07:59:12.495Z,63.48
2016-11-10T08:00:12.518Z,63.39
2016-11-10T08:01:12.414Z,64.71
2016-11-10T08:02:12.505Z,64.23
2016-11-10T08:03:12.507Z,62.91
2016-11-10T08:04:12.502Z,62.62
2016-11-10T08:05:12.444Z,61.58
2016-11-10T08:06:12.439Z,62.34
2016-11-10T08:07:12.437Z,61.77
2016-11-10T08:08:12.568Z,61.4
2016-11-10T08:09:12.525Z,61.11
2016-11-10T08:10:12.453Z,61.4
2016-11-10T08:11:12.523Z,61.77
2016-11-10T08:12:12.520Z,62.34
2016-11-10T08:13:12.529Z,62.15
2016-11-10T08:14:12.521Z,62.53
2016-11-10T08:15:12.567Z,62.43
2016-11-10T08:16:12.601Z,64.81
2016-11-10T08:17:12.469Z,65
2016-11-10T08:18:12.480Z,64.71
2016-11-10T08:19:12.560Z,64.61
2016-11-10T08:20:12.552Z,64.33
2016-11-10T08:21:12.559Z,63.95
2016-11-10T08:22:12.487Z,63.76
2016-11-10T08:23:12.492Z,62.82
2016-11-10T08:24:12.533Z,62.15
2016-11-10T08:25:12.509Z,62.82
2016-11-10T08:26:12.628Z,63.6
2016-11-10T08:27:12.512Z,65.37
2016-11-10T08:28:12.518Z,66.51
2016-11-10T08:29:12.580Z,67.18
2016-11-10T08:30:12.531Z,67.93
2016-11-10T08:31:12.516Z,67.46
2016-11-10T08:32:12.596Z,67.18
2016-11-10T08:33:12.522Z,66.6
2016-11-10T08:34:12.606Z,66.51
2016-11-10T08:35:12.517Z,65.94
2016-11-10T08:36:12.607Z,65.94
2016-11-10T08:37:12.618Z,64.9
2016-11-10T08:38:12.615Z,64.04
2016-11-10T08:39:12.525Z,62.91
2016-11-10T08:40:12.551Z,62.72
2016-11-10T08:41:12.573Z,62.28
2016-11-10T08:42:12.555Z,62.05
2016-11-10T08:43:12.578Z,62.18
2016-11-10T08:44:12.668Z,62.37
2016-11-10T08:45:12.679Z,62.08
2016-11-10T08:46:12.554Z,61.58
2016-11-10T08:47:12.652Z,61.8
2016-11-10T08:48:12.707Z,61.87
2016-11-10T08:50:12.562Z,61.14
2016-11-10T08:51:12.651Z,61.4
2016-11-10T08:52:12.662Z,62.15
2016-11-10T08:53:12.576Z,62.24
2016-11-10T08:54:12.601Z,62.28
2016-11-10T08:55:12.649Z,64.71
2016-11-10T08:56:12.684Z,64.65
2016-11-10T08:57:12.665Z,63.85
2016-11-10T08:58:12.661Z,64.61
2016-11-10T08:59:12.597Z,64.23
2016-11-10T09:00:12.686Z,64.46
2016-11-10T09:01:12.703Z,62.66
2016-11-10T09:02:12.624Z,62.75
2016-11-10T09:03:12.681Z,62.75
2016-11-10T09:04:12.705Z,62.18
2016-11-10T09:05:12.629Z,61.8
2016-11-10T09:06:12.739Z,61.52
2016-11-10T09:07:12.660Z,62.08
2016-11-10T09:08:12.693Z,64.27
2016-11-10T09:09:12.714Z,64.36
2016-11-10T09:10:12.807Z,66.13
2016-11-10T09:11:12.750Z,68.31
2016-11-10T09:12:12.843Z,66.6
2016-11-10T09:13:12.903Z,72.42
2016-11-10T09:14:12.674Z,70.39
2016-11-10T09:15:12.794Z,70.11
2016-11-10T09:16:12.763Z,69.64
2016-11-10T09:17:12.659Z,70.78
2016-11-10T09:18:14.360Z,69.35
2016-11-10T09:19:13.289Z,69.26
2016-11-10T09:20:12.752Z,69.35
2016-11-10T09:21:12.708Z,70.78
2016-11-10T09:22:12.724Z,69.17
2016-11-10T09:23:12.664Z,68.59
2016-11-10T09:24:12.653Z,67.55
2016-11-10T09:25:12.751Z,67.65
2016-11-10T09:26:12.671Z,69.17
2016-11-10T09:27:12.665Z,69.07
2016-11-10T09:28:12.862Z,68.79
2016-11-10T09:29:12.751Z,68.12
2016-11-10T09:30:12.698Z,70.39
2016-11-10T09:31:12.700Z,69.17
2016-11-10T09:32:12.741Z,76.36
2016-11-10T09:33:12.687Z,72.19
2016-11-10T09:34:12.678Z,69.54
2016-11-10T09:35:12.868Z,69.92
2016-11-10T09:36:12.781Z,71.91
2016-11-10T09:37:12.752Z,70.87
2016-11-10T09:38:12.816Z,70.58
2016-11-10T09:39:12.705Z,71.25
2016-11-10T09:40:12.696Z,69.73
2016-11-10T09:41:12.863Z,68.5
2016-11-10T09:42:12.748Z,69.35
2016-11-10T09:43:12.769Z,72.1
2016-11-10T09:44:12.801Z,69.54
2016-11-10T09:45:12.783Z,69.54
2016-11-10T09:46:12.783Z,70.87
2016-11-10T09:47:12.716Z,72
2016-11-10T09:48:12.796Z,70.68
2016-11-10T09:49:12.789Z,68.02
2016-11-10T09:50:12.736Z,71.09
2016-11-10T09:51:12.810Z,69.48
2016-11-10T09:52:12.738Z,69.17
2016-11-10T09:53:12.731Z,68.79
2016-11-10T09:54:12.728Z,72.19
2016-11-10T09:55:12.840Z,70.2
2016-11-10T09:56:12.821Z,69.26
2016-11-10T09:57:12.812Z,68.88
2016-11-10T09:58:12.814Z,69.57
2016-11-10T09:59:12.808Z,69.57
2016-11-10T10:00:12.862Z,68.31
2016-11-10T10:01:12.774Z,67.3
2016-11-10T10:02:12.838Z,67.11
2016-11-10T10:03:12.881Z,68.69
2016-11-10T10:04:12.890Z,67.18
2016-11-10T10:05:12.779Z,67.08
2016-11-10T10:06:12.870Z,74.6
2016-11-10T10:07:12.785Z,73.61
2016-11-10T10:08:12.781Z,72.86
2016-11-10T10:09:12.785Z,73.24
2016-11-10T10:10:12.874Z,75.51
2016-11-10T10:11:12.801Z,70.97
2016-11-10T10:12:12.884Z,72
2016-11-10T10:13:12.793Z,71.91
2016-11-10T10:14:12.918Z,68.5
2016-11-10T10:15:12.879Z,76.55
2016-11-10T10:16:13.131Z,75.98
2016-11-10T10:17:12.903Z,75.13
2016-11-10T10:18:12.884Z,73.99
2016-11-10T10:19:12.826Z,75.51
2016-11-10T10:20:12.890Z,73.43
2016-11-10T10:21:12.871Z,71.06
2016-11-10T10:22:12.809Z,73.33
2016-11-10T10:23:20.321Z,70.3
2016-11-10T10:24:12.862Z,70.15
2016-11-10T10:25:12.969Z,69.35
2016-11-10T10:26:12.828Z,67.65
2016-11-10T10:27:12.875Z,67.18
2016-11-10T10:28:12.857Z,65.56
2016-11-10T10:29:12.926Z,65.22
2016-11-10T10:30:12.939Z,66.6
2016-11-10T10:31:13.079Z,66.6
2016-11-10T10:32:12.947Z,64.81
2016-11-10T10:33:12.936Z,66.54
2016-11-10T10:34:12.912Z,69.07
2016-11-10T10:35:12.975Z,70.3
2016-11-10T10:36:13.019Z,69.73
2016-11-10T10:37:13.377Z,72.86
2016-11-10T10:38:13.086Z,76.36
2016-11-10T10:39:12.915Z,76.36
2016-11-10T10:40:12.897Z,73.99
2016-11-10T10:41:12.896Z,71.81
2016-11-10T10:42:12.990Z,73.61
2016-11-10T10:43:13.011Z,70.11
2016-11-10T10:44:12.893Z,70.97
2016-11-10T10:45:12.897Z,70.01
2016-11-10T10:46:12.996Z,68.88
2016-11-10T10:52:15.834Z,71.44
2016-11-10T10:53:13.138Z,70.97
2016-11-10T10:54:13.031Z,71.91
2016-11-10T10:55:12.908Z,71.25
2016-11-10T10:56:12.941Z,70.49
2016-11-10T10:57:12.998Z,70.2
2016-11-10T10:58:12.906Z,76.46
2016-11-10T10:59:12.961Z,74.66
2016-11-10T11:00:13.781Z,74.56
2016-11-10T11:01:12.987Z,72.67
2016-11-10T11:02:12.938Z,72.29
2016-11-10T11:03:13.008Z,74.56
2016-11-10T11:04:12.990Z,73.61
2016-11-10T11:05:13.033Z,72.96
2016-11-10T11:06:13.020Z,70.49
2016-11-10T11:07:13.006Z,68.98
2016-11-10T11:08:13.051Z,72.29
2016-11-10T11:09:13.103Z,76.17
2016-11-10T11:10:12.958Z,74.95
2016-11-10T11:11:12.982Z,72.96
2016-11-10T11:12:12.950Z,68.98
2016-11-10T11:13:12.953Z,67.83
2016-11-10T11:14:13.087Z,71.81
2016-11-10T11:15:13.073Z,71.81
2016-11-10T11:16:12.959Z,72.48
2016-11-10T11:17:12.958Z,73.61
2016-11-10T11:18:12.964Z,75.32
2016-11-10T11:19:13.173Z,73.05
2016-11-10T11:20:12.981Z,73.33
2016-11-10T11:21:13.132Z,72.67
2016-11-10T11:22:12.990Z,73.8
2016-11-10T11:23:13.059Z,72
2016-11-10T11:24:12.978Z,71.06
2016-11-10T11:25:13.064Z,81.1
2016-11-10T11:26:12.981Z,77.4
2016-11-10T11:27:13.055Z,71.62
2016-11-10T11:28:13.005Z,71.81
2016-11-10T11:29:13.014Z,72.96
2016-11-10T11:30:13.163Z,73.24
2016-11-10T11:31:13.230Z,74.18
2016-11-10T11:32:13.224Z,71.15
2016-11-10T11:33:13.005Z,72.29
2016-11-10T11:34:13.075Z,73.9
2016-11-10T11:35:13.081Z,74.69
2016-11-10T11:36:13.110Z,76.46
2016-11-10T11:37:13.091Z,78.64
2016-11-10T11:38:13.115Z,77.88
2016-11-10T11:39:13.107Z,78.26
2016-11-10T11:40:13.102Z,76.46
2016-11-10T11:41:13.034Z,76.36
2016-11-10T11:42:13.119Z,70.78
2016-11-10T11:43:13.019Z,72.48
2016-11-10T11:44:13.050Z,73.71
2016-11-10T11:45:13.119Z,73.9
2016-11-10T11:46:13.143Z,73.99
2016-11-10T11:47:13.116Z,74.85
2016-11-10T11:48:13.034Z,74.09
2016-11-10T11:49:13.137Z,74.75
2016-11-10T11:50:13.113Z,72.42
2016-11-10T11:51:13.051Z,72.23
2016-11-10T11:52:13.410Z,69.54
2016-11-10T11:53:13.058Z,67.68
2016-11-10T11:54:13.228Z,67.21
2016-11-10T11:55:13.172Z,69.57
2016-11-10T11:56:13.752Z,68.73
2016-11-10T11:57:13.197Z,69.48
2016-11-10T11:58:13.087Z,70.72
2016-11-10T11:59:13.126Z,68.73
2016-11-10T12:00:13.225Z,70.62
2016-11-10T12:01:13.087Z,72.14
2016-11-10T12:02:13.182Z,73.75
2016-11-10T12:03:13.180Z,71
2016-11-10T12:04:13.176Z,67.21
2016-11-10T12:05:13.163Z,66.64
2016-11-10T12:06:13.199Z,64.08
2016-11-10T12:07:13.267Z,64.08
2016-11-10T12:08:13.242Z,65.31
2016-11-10T12:09:13.204Z,65.97
2016-11-10T12:10:13.414Z,66.26
2016-11-10T12:11:13.211Z,66.83
2016-11-10T12:12:13.228Z,66.54
2016-11-10T12:13:13.136Z,72.04
2016-11-10T12:14:13.115Z,71.38
2016-11-10T12:15:13.147Z,69.67
2016-11-10T12:16:13.226Z,68.82
2016-11-10T12:17:13.167Z,65.03
2016-11-10T12:18:13.312Z,64.17
2016-11-10T12:19:13.452Z,66.07
2016-11-10T12:20:17.162Z,64.65
2016-11-10T12:21:13.560Z,67.68
2016-11-10T12:22:13.215Z,68.54
2016-11-10T12:23:13.158Z,67.49
2016-11-10T12:24:13.799Z,65.69
2016-11-10T12:25:13.255Z,64.74
2016-11-10T12:26:13.502Z,66.74
2016-11-10T12:27:13.729Z,64.27
2016-11-10T12:28:13.953Z,63.7
2016-11-10T12:29:13.157Z,61.99
2016-11-10T12:30:13.286Z,62.56
2016-11-10T12:31:13.309Z,61.33
2016-11-10T12:32:13.273Z,61.83
2016-11-10T12:33:13.277Z,64.87
2016-11-10T12:34:13.215Z,63.23
2016-11-10T12:35:13.314Z,60.86
2016-11-10T12:36:13.210Z,59.53
2016-11-10T12:37:13.278Z,60.98
2016-11-10T12:38:14.484Z,61.36
2016-11-10T12:39:13.255Z,63.07
2016-11-10T12:40:13.343Z,60.5
2016-11-10T12:41:13.316Z,60.5
2016-11-10T12:42:13.251Z,60.31
2016-11-10T12:43:13.303Z,61.08
2016-11-10T12:44:14.822Z,61.55
2016-11-10T12:45:13.210Z,64.68
2016-11-10T12:46:13.320Z,59.66
2016-11-10T12:47:13.205Z,59.66
2016-11-10T12:48:13.226Z,60.6
2016-11-10T12:49:13.308Z,60.13
2016-11-10T12:50:13.307Z,60.03
2016-11-10T12:51:13.246Z,60.13
2016-11-10T12:52:13.218Z,59.08
2016-11-10T12:53:13.288Z,60.22
2016-11-10T12:54:13.311Z,59.66
2016-11-10T12:55:13.366Z,59.27
2016-11-10T12:56:13.324Z,60.41
2016-11-10T12:57:13.251Z,59.27
2016-11-10T12:58:13.242Z,62.02
2016-11-10T12:59:13.249Z,60.22
2016-11-10T13:00:13.429Z,60.03
2016-11-10T13:01:13.335Z,59.75
2016-11-10T13:02:14.132Z,60.03
2016-11-10T13:03:13.524Z,60.6